Time;durP1;ratioP1;P1;durP2;ratioP2;P2;SDS_P1;SDS_P2;PMS_P1;PMS_P2;Temp;Humidity;BMP_temperature;BMP_pressure;BME280_temperature;BME280_humidity;BME280_pressure;Samples;Min_cycle;Max_cycle;Signal;HPM_P1;HPM_P2
2021/06/18 00:00:53;;;;;;;1999.90;999.90;;;12.20;99.90;;;;;;6124490;23;20158;-53
2021/06/18 00:03:19;;;;;;;1999.90;999.90;;;12.20;99.90;;;;;;6124025;23;20144;-56
2021/06/18 00:05:46;;;;;;;1999.90;999.90;;;12.30;99.90;;;;;;6124472;23;20187;-50
2021/06/18 00:08:13;;;;;;;1999.90;999.90;;;12.20;99.90;;;;;;6124065;23;20169;-55
2021/06/18 00:10:40;;;;;;;1999.90;999.90;;;12.00;99.90;;;;;;6124137;23;20591;-51
2021/06/18 00:13:07;;;;;;;1999.90;999.90;;;11.90;99.90;;;;;;6126441;23;20173;-46
2021/06/18 00:15:33;;;;;;;1999.90;999.90;;;11.80;99.90;;;;;;6125872;23;20580;-53
2021/06/18 00:18:00;;;;;;;1999.90;999.90;;;11.70;99.90;;;;;;6125964;23;20151;-54
2021/06/18 00:20:27;;;;;;;1999.90;999.90;;;11.70;99.90;;;;;;6126284;23;20218;-45
2021/06/18 00:22:54;;;;;;;1999.90;999.90;;;11.60;99.90;;;;;;6126069;23;20151;-54
2021/06/18 00:25:20;;;;;;;1999.90;999.90;;;11.50;99.90;;;;;;6126314;23;20543;-56
2021/06/18 00:27:47;;;;;;;1999.90;999.90;;;11.50;99.90;;;;;;6125956;23;20147;-55
2021/06/18 00:30:14;;;;;;;1999.90;999.90;;;11.50;99.90;;;;;;6125970;23;20202;-55
2021/06/18 00:32:42;;;;;;;1999.90;999.90;;;11.50;99.90;;;;;;6126319;23;20631;-57
2021/06/18 00:35:09;;;;;;;1999.90;999.90;;;11.50;99.90;;;;;;6126061;23;20151;-50
2021/06/18 00:37:36;;;;;;;1999.90;999.90;;;11.60;99.90;;;;;;6125831;23;20158;-56
2021/06/18 00:40:04;;;;;;;1999.90;999.90;;;11.60;99.90;;;;;;6126150;23;20567;-56
2021/06/18 00:42:31;;;;;;;1999.90;999.90;;;11.60;99.90;;;;;;6125916;23;20155;-55
2021/06/18 00:44:58;;;;;;;1999.90;999.90;;;11.70;99.90;;;;;;6125553;23;20171;-45
2021/06/18 00:47:26;;;;;;;1999.90;999.90;;;11.70;99.90;;;;;;6126207;23;20465;-52
2021/06/18 00:49:53;;;;;;;1999.90;999.90;;;11.80;99.90;;;;;;6125735;23;20177;-54
2021/06/18 00:52:22;;;;;;;1999.90;999.90;;;11.80;99.90;;;;;;6125590;23;20575;-56
2021/06/18 00:54:49;;;;;;;1999.90;999.90;;;11.90;99.90;;;;;;6126077;23;20246;-53
2021/06/18 00:57:17;;;;;;;1999.90;999.90;;;11.80;99.90;;;;;;6125674;23;20189;-54
2021/06/18 00:59:44;;;;;;;1999.90;999.90;;;11.90;99.90;;;;;;6125456;23;20607;-49
2021/06/18 01:02:11;;;;;;;1999.90;999.90;;;11.80;99.90;;;;;;6125884;23;20154;-53
2021/06/18 01:04:40;;;;;;;1999.90;999.90;;;11.70;99.90;;;;;;6125485;23;20148;-55
2021/06/18 01:07:40;;;;;;;1999.90;999.90;;;11.60;99.90;;;;;;6125745;23;20153;-50
2021/06/18 01:10:22;;;;;;;1999.90;999.90;;;11.40;99.90;;;;;;6125737;23;20151;-50
2021/06/18 01:13:06;;;;;;;1999.90;999.90;;;11.30;99.90;;;;;;6125399;23;20471;-51
2021/06/18 01:16:02;;;;;;;1999.90;999.90;;;11.40;99.90;;;;;;6126157;23;20567;-53
2021/06/18 01:18:56;;;;;;;1999.90;999.90;;;11.40;99.90;;;;;;6076880;23;20155;-47
2021/06/18 01:21:30;;;;;;;1999.90;999.90;;;11.30;99.90;;;;;;6125354;23;20246;-53
2021/06/18 01:24:03;;;;;;;1999.90;999.90;;;11.30;99.90;;;;;;6125308;23;20144;-46
2021/06/18 01:26:53;;;;;;;1999.90;999.90;;;11.20;99.90;;;;;;6125211;23;20208;-52
2021/06/18 01:29:21;;;;;;;1999.90;999.90;;;11.20;99.90;;;;;;6126027;23;20148;-50
2021/06/18 01:31:50;;;;;;;1999.90;999.90;;;11.30;99.90;;;;;;6125270;23;20155;-47
2021/06/18 01:34:29;;;;;;;1999.90;999.90;;;11.30;99.90;;;;;;6125314;23;20642;-48
2021/06/18 01:37:03;;;;;;;1999.90;999.90;;;11.20;99.90;;;;;;6125689;23;20170;-46
2021/06/18 01:39:31;;;;;;;1999.90;999.90;;;11.10;99.90;;;;;;6125950;23;20218;-44
2021/06/18 01:42:02;;;;;;;1999.90;999.90;;;11.10;99.90;;;;;;6125600;23;20598;-50
2021/06/18 01:44:29;;;;;;;1999.90;999.90;;;11.30;99.90;;;;;;6125247;23;20135;-51
2021/06/18 01:46:58;;;;;;;1999.90;999.90;;;11.20;99.90;;;;;;6125219;23;20553;-55
2021/06/18 01:49:25;;;;;;;1999.90;999.90;;;11.20;99.90;;;;;;6125328;23;20151;-54
2021/06/18 01:51:53;;;;;;;1999.90;999.90;;;11.00;99.90;;;;;;6125458;23;20226;-46
2021/06/18 01:54:26;;;;;;;1999.90;999.90;;;10.90;99.90;;;;;;6124862;23;20242;-51
2021/06/18 01:56:56;;;;;;;1999.90;999.90;;;10.90;99.90;;;;;;6125755;23;20131;-56
2021/06/18 01:59:25;;;;;;;1999.90;999.90;;;10.80;99.90;;;;;;6125191;23;20157;-54
2021/06/18 02:01:53;;;;;;;1999.90;999.90;;;10.80;99.90;;;;;;6124919;23;20590;-45
2021/06/18 02:04:20;;;;;;;1999.90;999.90;;;10.70;99.90;;;;;;6125392;23;20155;-44
2021/06/18 02:06:49;;;;;;;1999.90;999.90;;;10.60;99.90;;;;;;6124678;23;20263;-52
2021/06/18 02:09:16;;;;;;;1999.90;999.90;;;10.50;99.90;;;;;;6124854;23;20148;-50
2021/06/18 02:11:44;;;;;;;1999.90;999.90;;;10.50;99.90;;;;;;6125285;23;20487;-46
2021/06/18 02:14:18;;;;;;;1999.90;999.90;;;10.50;99.90;;;;;;6124761;23;20569;-53
2021/06/18 02:16:57;;;;;;;1999.90;999.90;;;10.50;99.90;;;;;;6125134;23;20619;-52
2021/06/18 02:19:24;;;;;;;1999.90;999.90;;;10.50;99.90;;;;;;6125259;23;20139;-42
2021/06/18 02:21:54;;;;;;;1999.90;999.90;;;10.50;99.90;;;;;;6124989;23;20147;-55
2021/06/18 02:24:28;;;;;;;1999.90;999.90;;;10.50;99.90;;;;;;6125050;23;20147;-53
2021/06/18 02:26:56;;;;;;;1999.90;999.90;;;10.50;99.90;;;;;;6124848;23;20187;-43
2021/06/18 02:29:23;;;;;;;1999.90;999.90;;;10.40;99.90;;;;;;6124578;23;20151;-53
2021/06/18 02:31:52;;;;;;;1999.90;999.90;;;10.40;99.90;;;;;;6125093;23;20189;-50
2021/06/18 02:34:19;;;;;;;1999.90;999.90;;;10.50;99.90;;;;;;6124562;23;20569;-46
2021/06/18 02:36:46;;;;;;;1999.90;999.90;;;10.50;99.90;;;;;;6124696;23;20147;-54
2021/06/18 02:39:13;;;;;;;1999.90;999.90;;;10.40;99.90;;;;;;6125292;23;20206;-50
2021/06/18 02:41:41;;;;;;;1999.90;999.90;;;10.40;99.90;;;;;;6124633;23;20147;-50
2021/06/18 02:44:09;;;;;;;1999.90;999.90;;;10.40;99.90;;;;;;6124772;23;20586;-53
2021/06/18 02:46:55;;;;;;;1999.90;999.90;;;10.40;99.90;;;;;;6125055;23;20187;-51
2021/06/18 02:49:32;;;;;;;1999.90;999.90;;;10.30;99.90;;;;;;6124705;23;20136;-43
2021/06/18 02:52:10;;;;;;;1999.90;999.90;;;10.20;99.90;;;;;;6124825;23;20312;-54
2021/06/18 02:54:51;;;;;;;1999.90;999.90;;;10.20;99.90;;;;;;6095526;23;20152;-51
2021/06/18 02:57:19;;;;;;;1999.90;999.90;;;10.20;99.90;;;;;;6095007;23;20503;-45
2021/06/18 03:00:06;;;;;;;1999.90;999.90;;;10.20;99.90;;;;;;6095727;23;20576;-54
2021/06/18 03:02:43;;;;;;;1999.90;999.90;;;10.20;99.90;;;;;;6095031;23;20147;-52
2021/06/18 03:05:12;;;;;;;1999.90;999.90;;;10.20;99.90;;;;;;6095250;23;20262;-55
2021/06/18 03:07:44;;;;;;;1999.90;999.90;;;10.20;99.90;;;;;;6095251;23;20152;-56
2021/06/18 03:10:15;;;;;;;1999.90;999.90;;;10.10;99.90;;;;;;6095315;23;20136;-53
2021/06/18 03:12:46;;;;;;;1999.90;999.90;;;10.00;99.90;;;;;;6095362;23;20215;-49
2021/06/18 03:15:14;;;;;;;1999.90;999.90;;;10.10;99.90;;;;;;6095315;23;20227;-54
2021/06/18 03:17:43;;;;;;;1999.90;999.90;;;9.90;99.90;;;;;;6095083;23;20479;-52
2021/06/18 03:20:19;;;;;;;1999.90;999.90;;;9.90;99.90;;;;;;6095522;23;20654;-54
2021/06/18 03:22:50;;;;;;;1999.90;999.90;;;9.80;99.90;;;;;;6095330;23;20135;-45
2021/06/18 03:25:18;;;;;;;1999.90;999.90;;;9.90;99.90;;;;;;6094915;23;20515;-50
2021/06/18 03:27:46;;;;;;;1999.90;999.90;;;9.80;99.90;;;;;;6095496;23;20162;-51
2021/06/18 03:30:14;;;;;;;1999.90;999.90;;;9.90;99.90;;;;;;6094990;23;20152;-52
2021/06/18 03:32:43;;;;;;;1999.90;999.90;;;9.90;99.90;;;;;;6095244;23;20148;-54
2021/06/18 03:35:10;;;;;;;1999.90;999.90;;;9.80;99.90;;;;;;6095361;23;20160;-55
2021/06/18 03:37:39;;;;;;;1999.90;999.90;;;9.90;99.90;;;;;;6095038;23;20147;-53
2021/06/18 03:40:07;;;;;;;1999.90;999.90;;;9.80;99.90;;;;;;6095687;23;20144;-54
2021/06/18 03:42:35;;;;;;;1999.90;999.90;;;9.80;99.90;;;;;;6095036;23;20162;-53
2021/06/18 03:45:07;;;;;;;1999.90;999.90;;;9.90;99.90;;;;;;6095257;23;22145;-52
2021/06/18 03:47:34;;;;;;;1999.90;999.90;;;9.90;99.90;;;;;;6097056;23;20163;-55
2021/06/18 03:50:01;;;;;;;1999.90;999.90;;;10.00;99.90;;;;;;6097488;23;20151;-56
2021/06/18 03:52:28;;;;;;;1999.90;999.90;;;9.90;99.90;;;;;;6101618;23;20266;-55
2021/06/18 03:54:56;;;;;;;1999.90;999.90;;;9.80;99.90;;;;;;6126876;23;20135;-57
2021/06/18 03:57:24;;;;;;;1999.90;999.90;;;9.80;99.90;;;;;;6101013;23;20250;-48
2021/06/18 03:59:53;;;;;;;1999.90;999.90;;;9.80;99.90;;;;;;6125911;23;20159;-58
2021/06/18 04:02:21;;;;;;;1999.90;999.90;;;9.80;99.90;;;;;;6126564;23;20488;-52
2021/06/18 04:04:49;;;;;;;1999.90;999.90;;;9.70;99.90;;;;;;6125980;23;20459;-55
2021/06/18 04:07:15;;;;;;;1999.90;999.90;;;9.70;99.90;;;;;;6126075;23;20610;-44
2021/06/18 04:09:43;;;;;;;1999.90;999.90;;;9.60;99.90;;;;;;6126942;23;20151;-58
2021/06/18 04:12:11;;;;;;;1999.90;999.90;;;9.50;99.90;;;;;;6125909;23;20582;-50
2021/06/18 04:14:38;;;;;;;1999.90;999.90;;;9.30;99.90;;;;;;6126066;23;20594;-57
2021/06/18 04:17:06;;;;;;;1999.90;999.90;;;9.30;99.90;;;;;;6126156;23;20574;-44
2021/06/18 04:19:35;;;;;;;1999.90;999.90;;;9.30;99.90;;;;;;6126257;23;20473;-52
2021/06/18 04:22:05;;;;;;;1999.90;999.90;;;9.20;99.90;;;;;;6126334;23;20476;-56
2021/06/18 04:24:32;;;;;;;1999.90;999.90;;;9.40;99.90;;;;;;6126190;23;20150;-52
2021/06/18 04:27:01;;;;;;;1999.90;999.90;;;9.40;99.90;;;;;;6125805;23;20637;-54
2021/06/18 04:29:28;;;;;;;1999.90;999.90;;;9.30;99.90;;;;;;6125801;23;20155;-57
2021/06/18 04:31:55;;;;;;;1999.90;999.90;;;9.20;99.90;;;;;;6125946;23;20152;-57
2021/06/18 04:34:22;;;;;;;1999.90;999.90;;;9.20;99.90;;;;;;6125699;23;20155;-51
2021/06/18 04:36:48;;;;;;;1999.90;999.90;;;9.20;99.90;;;;;;6126048;23;20150;-57
2021/06/18 04:39:15;;;;;;;1999.90;999.90;;;9.20;99.90;;;;;;6125841;23;20178;-53
2021/06/18 04:41:43;;;;;;;1999.90;999.90;;;9.30;99.90;;;;;;6125661;23;20660;-49
2021/06/18 04:44:10;;;;;;;1999.90;999.90;;;9.30;99.90;;;;;;6125925;23;20459;-52
2021/06/18 04:46:37;;;;;;;1999.90;999.90;;;9.20;99.90;;;;;;6125364;23;20187;-43
2021/06/18 04:49:04;;;;;;;1999.90;999.90;;;9.30;99.90;;;;;;6125738;23;20481;-57
2021/06/18 04:51:30;;;;;;;1999.90;999.90;;;9.30;99.90;;;;;;6126015;23;20154;-51
2021/06/18 04:53:57;;;;;;;1999.90;999.90;;;9.40;99.90;;;;;;6125068;23;20214;-46
2021/06/18 04:56:24;;;;;;;1999.90;999.90;;;9.40;99.90;;;;;;6099636;23;20166;-55
2021/06/18 04:58:51;;;;;;;1999.90;999.90;;;9.30;99.90;;;;;;6125242;23;20143;-49
2021/06/18 05:01:18;;;;;;;1999.90;999.90;;;9.30;99.90;;;;;;6125337;23;20173;-51
2021/06/18 05:03:45;;;;;;;1999.90;999.90;;;9.30;99.90;;;;;;6125778;23;20150;-54
2021/06/18 05:06:12;;;;;;;1999.90;999.90;;;9.30;99.90;;;;;;6125640;23;20234;-55
2021/06/18 05:08:39;;;;;;;1999.90;999.90;;;9.40;99.90;;;;;;6125520;23;20532;-50
2021/06/18 05:11:05;;;;;;;1999.90;999.90;;;9.50;99.90;;;;;;6125712;23;20147;-55
2021/06/18 05:13:32;;;;;;;1999.90;999.90;;;9.60;99.90;;;;;;6125733;23;20147;-48
2021/06/18 05:15:59;;;;;;;1999.90;999.90;;;9.60;99.90;;;;;;6125194;23;20158;-47
2021/06/18 05:18:26;;;;;;;1999.90;999.90;;;9.60;99.90;;;;;;6125751;23;20147;-54
2021/06/18 05:20:53;;;;;;;1999.90;999.90;;;9.70;99.90;;;;;;6125512;23;20143;-58
2021/06/18 05:23:20;;;;;;;1999.90;999.90;;;9.90;99.90;;;;;;6125460;23;20159;-59
2021/06/18 05:25:46;;;;;;;1999.90;999.90;;;10.10;99.90;;;;;;6125767;23;20178;-51
2021/06/18 05:28:13;;;;;;;1999.90;999.90;;;10.20;99.90;;;;;;6125583;23;20147;-53
2021/06/18 05:30:40;;;;;;;1999.90;999.90;;;10.20;99.90;;;;;;6125225;23;20181;-53
2021/06/18 05:33:07;;;;;;;1999.90;999.90;;;10.10;99.90;;;;;;6125891;23;20487;-56
2021/06/18 05:35:33;;;;;;;1999.90;999.90;;;10.20;99.90;;;;;;6125121;23;20158;-54
2021/06/18 05:38:00;;;;;;;1999.90;999.90;;;10.10;99.90;;;;;;6125172;23;20480;-52
2021/06/18 05:40:27;;;;;;;1999.90;999.90;;;10.10;99.90;;;;;;6125340;23;20154;-53
2021/06/18 05:42:53;;;;;;;1999.90;999.90;;;10.00;99.90;;;;;;6124920;23;20154;-53
2021/06/18 05:45:20;;;;;;;1999.90;999.90;;;9.80;99.90;;;;;;6124715;23;20182;-55
2021/06/18 05:47:47;;;;;;;1999.90;999.90;;;9.70;99.90;;;;;;6124668;23;20230;-47
2021/06/18 05:50:14;;;;;;;1999.90;999.90;;;9.60;99.90;;;;;;6124551;23;20219;-46
2021/06/18 05:52:41;;;;;;;1999.90;999.90;;;9.50;99.90;;;;;;6124317;23;20245;-53
2021/06/18 05:55:08;;;;;;;1999.90;999.90;;;9.50;99.90;;;;;;6124844;23;20221;-56
2021/06/18 05:57:36;;;;;;;1999.90;999.90;;;9.40;99.90;;;;;;6124379;23;20217;-49
2021/06/18 06:00:05;;;;;;;1999.90;999.90;;;9.30;99.90;;;;;;6124669;23;20530;-53
2021/06/18 06:02:32;;;;;;;1999.90;999.90;;;9.20;99.90;;;;;;6124415;23;20155;-44
2021/06/18 06:04:59;;;;;;;1999.90;999.90;;;9.30;99.90;;;;;;6123970;23;20201;-55
2021/06/18 06:07:25;;;;;;;1999.90;999.90;;;9.30;99.90;;;;;;6124718;23;20177;-52
2021/06/18 06:09:52;;;;;;;1999.90;999.90;;;9.30;99.90;;;;;;6124211;23;20190;-47
2021/06/18 06:12:19;;;;;;;1999.90;999.90;;;9.50;99.90;;;;;;6124396;23;20154;-45
2021/06/18 06:14:46;;;;;;;1999.90;999.90;;;9.60;99.90;;;;;;6124722;23;20638;-57
2021/06/18 06:17:12;;;;;;;1999.90;999.90;;;9.70;99.90;;;;;;6123854;23;20229;-46
2021/06/18 06:19:39;;;;;;;1999.90;999.90;;;9.80;99.90;;;;;;6110983;23;20162;-44
2021/06/18 06:22:06;;;;;;;1999.90;999.90;;;9.90;99.90;;;;;;6124665;23;20148;-58
2021/06/18 06:24:33;;;;;;;1999.90;999.90;;;10.10;99.90;;;;;;6123924;23;20147;-51
2021/06/18 06:27:00;;;;;;;1999.90;999.90;;;10.10;99.90;;;;;;6124117;23;20183;-46
2021/06/18 06:29:27;;;;;;;1999.90;999.90;;;10.10;99.90;;;;;;6124132;23;20206;-51
2021/06/18 06:31:53;;;;;;;1999.90;999.90;;;10.20;99.90;;;;;;6124083;23;20151;-45
2021/06/18 06:34:20;;;;;;;1999.90;999.90;;;10.10;99.90;;;;;;6124267;23;20143;-50
2021/06/18 06:36:47;;;;;;;1999.90;999.90;;;10.10;99.90;;;;;;6125627;23;20203;-46
2021/06/18 06:39:14;;;;;;;1999.90;999.90;;;10.10;99.90;;;;;;6125449;23;20147;-47
2021/06/18 06:41:40;;;;;;;1999.90;999.90;;;10.10;99.90;;;;;;6125674;23;20165;-47
2021/06/18 06:44:07;;;;;;;1999.90;999.90;;;10.10;99.90;;;;;;6123762;23;20605;-46
2021/06/18 06:46:34;;;;;;;1999.90;999.90;;;10.20;99.90;;;;;;6124283;23;20201;-46
2021/06/18 06:49:01;;;;;;;1999.90;999.90;;;10.60;99.90;;;;;;6124924;23;20151;-46
2021/06/18 06:51:28;;;;;;;1999.90;999.90;;;11.00;99.90;;;;;;6120499;23;20241;-48
2021/06/18 06:53:56;;;;;;;1999.90;999.90;;;11.30;99.90;;;;;;6124481;23;20192;-52
2021/06/18 06:56:22;;;;;;;1999.90;999.90;;;11.50;99.90;;;;;;6124816;23;20234;-47
2021/06/18 06:58:51;;;;;;;1999.90;999.90;;;11.50;99.90;;;;;;6125412;23;20311;-53
2021/06/18 07:01:18;;;;;;;1999.90;999.90;;;11.50;99.90;;;;;;6125465;23;20290;-51
2021/06/18 07:03:44;;;;;;;1999.90;999.90;;;11.60;99.90;;;;;;6125449;23;20591;-55
2021/06/18 07:06:11;;;;;;;1999.90;999.90;;;11.70;99.90;;;;;;6125261;23;20191;-55
2021/06/18 07:08:38;;;;;;;1999.90;999.90;;;11.80;99.90;;;;;;6125215;23;20182;-54
2021/06/18 07:11:05;;;;;;;1999.90;999.90;;;11.90;99.90;;;;;;6125534;23;20182;-49
2021/06/18 07:13:32;;;;;;;1999.90;999.90;;;12.10;99.90;;;;;;6125484;23;20176;-46
2021/06/18 07:15:58;;;;;;;1999.90;999.90;;;12.30;99.90;;;;;;6125303;23;20151;-46
2021/06/18 07:18:26;;;;;;;1999.90;999.90;;;12.50;99.90;;;;;;6125503;23;20232;-46
2021/06/18 07:20:52;;;;;;;1999.90;999.90;;;12.50;99.90;;;;;;6124753;23;20147;-49
2021/06/18 07:23:19;;;;;;;1999.90;999.90;;;12.60;99.90;;;;;;6125315;23;20601;-44
2021/06/18 07:25:46;;;;;;;1999.90;999.90;;;12.80;99.90;;;;;;6125168;23;20261;-48
2021/06/18 07:28:14;;;;;;;1999.90;999.90;;;12.90;99.90;;;;;;6099528;23;20155;-47
2021/06/18 07:30:41;;;;;;;1999.90;999.90;;;12.90;99.90;;;;;;6125333;23;20218;-45
2021/06/18 07:33:08;;;;;;;1999.90;999.90;;;13.00;99.90;;;;;;6125220;23;20151;-44
2021/06/18 07:35:35;;;;;;;1999.90;999.90;;;13.30;99.90;;;;;;6125479;23;20591;-46
2021/06/18 07:38:03;;;;;;;1999.90;999.90;;;13.40;99.90;;;;;;6125373;23;20147;-50
2021/06/18 07:40:30;;;;;;;1999.90;999.90;;;13.40;99.90;;;;;;6125114;23;20260;-48
2021/06/18 07:42:58;;;;;;;1999.90;999.90;;;13.40;99.90;;;;;;6125398;23;20143;-47
2021/06/18 07:45:25;;;;;;;1999.90;999.90;;;13.60;99.90;;;;;;6124906;23;20182;-46
2021/06/18 07:47:52;;;;;;;1999.90;999.90;;;13.70;99.90;;;;;;6124985;23;20213;-49
2021/06/18 07:50:20;;;;;;;1999.90;999.90;;;13.70;99.90;;;;;;6125183;23;20606;-46
2021/06/18 07:52:48;;;;;;;1999.90;999.90;;;13.70;99.90;;;;;;6125078;23;20361;-58
2021/06/18 07:55:19;;;;;;;1999.90;999.90;;;13.70;99.90;;;;;;6125185;23;20182;-51
2021/06/18 07:57:46;;;;;;;1999.90;999.90;;;13.70;99.90;;;;;;6125021;23;20139;-46
2021/06/18 08:00:14;;;;;;;1999.90;999.90;;;13.70;99.90;;;;;;6125293;23;20202;-45
2021/06/18 08:02:41;;;;;;;1999.90;999.90;;;14.20;99.90;;;;;;6124896;23;20230;-58
2021/06/18 08:05:11;;;;;;;1999.90;999.90;;;14.80;99.90;;;;;;6124862;23;20453;-53
2021/06/18 08:07:39;;;;;;;1999.90;999.90;;;15.30;99.90;;;;;;6124842;23;20153;-52
2021/06/18 08:10:07;;;;;;;1999.90;999.90;;;15.80;99.90;;;;;;6124962;23;20585;-61
2021/06/18 08:12:33;;;;;;;1999.90;999.90;;;16.00;99.90;;;;;;6125248;23;20234;-51
2021/06/18 08:15:00;;;;;;;1999.90;999.90;;;16.30;99.90;;;;;;6125144;23;20234;-49
2021/06/18 08:17:27;;;;;;;1999.90;999.90;;;16.20;99.90;;;;;;6124991;23;20143;-49
2021/06/18 08:19:54;;;;;;;1999.90;999.90;;;15.80;99.90;;;;;;6124869;23;20210;-53
2021/06/18 08:22:21;;;;;;;1999.90;999.90;;;16.00;99.90;;;;;;6124919;23;20150;-45
2021/06/18 08:24:47;;;;;;;1999.90;999.90;;;16.00;99.90;;;;;;6124791;23;20166;-45
2021/06/18 08:27:14;;;;;;;1999.90;999.90;;;15.80;99.90;;;;;;6124820;23;20190;-48
2021/06/18 08:29:41;;;;;;;1999.90;999.90;;;15.50;99.90;;;;;;6125020;23;20152;-45
2021/06/18 08:32:08;;;;;;;1999.90;999.90;;;15.30;99.90;;;;;;6125417;23;20147;-44
2021/06/18 08:34:35;;;;;;;1999.90;999.90;;;15.20;99.90;;;;;;6126642;23;20155;-47
2021/06/18 08:37:02;;;;;;;1999.90;999.90;;;15.10;99.90;;;;;;6126370;23;20147;-46
2021/06/18 08:39:29;;;;;;;1999.90;999.90;;;15.20;99.90;;;;;;6126524;23;20453;-53
2021/06/18 08:41:57;;;;;;;1999.90;999.90;;;15.20;99.90;;;;;;6126794;23;20151;-45
2021/06/18 08:44:24;;;;;;;1999.90;999.90;;;15.50;99.90;;;;;;6126522;23;20150;-58
2021/06/18 08:46:50;;;;;;;1999.90;999.90;;;15.60;99.90;;;;;;6126516;23;20262;-50
2021/06/18 08:49:17;;;;;;;1999.90;999.90;;;15.80;99.90;;;;;;6126578;23;20143;-46
2021/06/18 08:51:44;;;;;;;1999.90;999.90;;;15.90;99.90;;;;;;6126364;23;20161;-45
2021/06/18 08:54:13;;;;;;;1999.90;999.90;;;15.80;99.90;;;;;;6126275;23;20183;-46
2021/06/18 08:56:40;;;;;;;1999.90;999.90;;;15.80;99.90;;;;;;6126717;23;20259;-45
2021/06/18 08:59:07;;;;;;;1999.90;999.90;;;15.80;99.90;;;;;;6126660;23;20202;-46
2021/06/18 09:01:34;;;;;;;1999.90;999.90;;;15.80;99.90;;;;;;6126538;23;20151;-48
2021/06/18 09:04:06;;;;;;;1999.90;999.90;;;15.80;99.90;;;;;;6126399;23;20474;-54
2021/06/18 09:06:39;;;;;;;1999.90;999.90;;;15.90;99.90;;;;;;6126551;23;20238;-48
2021/06/18 09:09:23;;;;;;;1999.90;999.90;;;16.00;99.90;;;;;;6126295;23;20566;-47
2021/06/18 09:11:51;;;;;;;1999.90;999.90;;;16.10;99.90;;;;;;6101400;23;20151;-47
2021/06/18 09:14:23;;;;;;;1999.90;999.90;;;16.30;99.90;;;;;;6127054;23;20155;-54
2021/06/18 09:17:19;;;;;;;1999.90;999.90;;;16.30;99.90;;;;;;6126944;23;20161;-46
2021/06/18 09:19:52;;;;;;;1999.90;999.90;;;16.30;99.90;;;;;;6126617;23;20136;-49
2021/06/18 09:22:39;;;;;;;1999.90;999.90;;;16.60;99.90;;;;;;6125116;23;20147;-58
2021/06/18 09:25:11;;;;;;;1999.90;999.90;;;16.80;99.90;;;;;;6125622;23;20150;-58
2021/06/18 09:27:41;;;;;;;1999.90;999.90;;;17.00;99.90;;;;;;6124644;23;20150;-54
2021/06/18 09:30:31;;;;;;;1999.90;999.90;;;17.00;99.90;;;;;;6125485;23;20183;-57
2021/06/18 09:33:27;;;;;;;1999.90;999.90;;;17.20;99.90;;;;;;6125249;23;20158;-47
2021/06/18 09:36:10;;;;;;;1999.90;999.90;;;17.40;99.90;;;;;;6124495;23;20152;-49
2021/06/18 09:38:51;;;;;;;1999.90;999.90;;;17.40;99.90;;;;;;6125874;23;20147;-47
2021/06/18 09:41:42;;;;;;;1999.90;999.90;;;17.50;99.90;;;;;;6125523;23;20474;-57
2021/06/18 09:44:16;;;;;;;1999.90;999.90;;;17.40;99.90;;;;;;6125679;23;20530;-51
2021/06/18 09:46:52;;;;;;;1999.90;999.90;;;17.50;99.90;;;;;;6125918;23;20193;-45
2021/06/18 09:49:41;;;;;;;1999.90;999.90;;;17.60;99.90;;;;;;6125997;23;20562;-48
2021/06/18 09:52:15;;;;;;;1999.90;999.90;;;17.60;99.90;;;;;;6125405;23;20591;-49
2021/06/18 09:54:48;;;;;;;1999.90;999.90;;;17.70;99.90;;;;;;6100101;23;20594;-46
2021/06/18 09:57:18;;;;;;;1999.90;999.90;;;17.80;99.90;;;;;;6126520;23;20143;-56
2021/06/18 10:00:04;;;;;;;1999.90;999.90;;;18.10;99.90;;;;;;6124656;23;20147;-57
2021/06/18 10:02:50;;;;;;;1999.90;999.90;;;18.20;99.90;;;;;;6100872;23;20230;-58
2021/06/18 10:05:28;;;;;;;1999.90;999.90;;;18.40;99.90;;;;;;6076249;23;20187;-58
2021/06/18 10:07:56;;;;;;;1999.90;999.90;;;18.50;98.60;;;;;;6126647;23;20522;-61
2021/06/18 10:10:28;;;;;;;1999.90;999.90;;;18.50;99.80;;;;;;6125844;23;20152;-58
2021/06/18 10:12:56;;;;;;;1999.90;999.90;;;18.70;99.60;;;;;;6125707;23;20590;-62
2021/06/18 10:15:26;;;;;;;1999.90;999.90;;;18.80;97.90;;;;;;6126019;23;20610;-57
2021/06/18 10:17:55;;;;;;;1999.90;999.90;;;18.80;96.10;;;;;;6125821;23;20159;-47
2021/06/18 10:20:28;;;;;;;1999.90;999.90;;;18.90;97.40;;;;;;6099132;23;20482;-46
2021/06/18 10:23:10;;;;;;;1999.90;999.90;;;18.90;97.60;;;;;;6126265;23;20143;-50
2021/06/18 10:25:49;;;;;;;1999.90;999.90;;;18.90;96.70;;;;;;6124986;23;20202;-50
2021/06/18 10:28:21;;;;;;;1999.90;999.90;;;18.90;96.10;;;;;;6125995;23;20143;-55
2021/06/18 10:30:53;;;;;;;1999.90;999.90;;;19.00;96.90;;;;;;6125982;23;20144;-50
2021/06/18 10:33:28;;;;;;;1999.90;999.90;;;19.30;96.30;;;;;;6126033;23;20154;-54
2021/06/18 10:36:06;;;;;;;1999.90;999.90;;;19.30;94.90;;;;;;6125482;23;20166;-49
2021/06/18 10:38:34;;;;;;;1999.90;999.90;;;19.40;94.40;;;;;;6125576;23;20166;-50
2021/06/18 10:41:24;;;;;;;1999.90;999.90;;;19.40;94.60;;;;;;6125910;23;20151;-49
2021/06/18 10:43:57;;;;;;;1999.90;999.90;;;19.50;94.20;;;;;;6125477;23;20152;-57
2021/06/18 10:46:36;;;;;;;1999.90;999.90;;;19.50;94.10;;;;;;6125524;23;20183;-56
2021/06/18 10:49:12;;;;;;;1999.90;999.90;;;19.40;94.20;;;;;;6125623;23;20434;-57
2021/06/18 10:51:42;;;;;;;1999.90;999.90;;;19.40;93.70;;;;;;6125854;23;20186;-49
2021/06/18 10:54:36;;;;;;;1999.90;999.90;;;19.60;94.70;;;;;;6125460;23;20210;-46
2021/06/18 10:57:05;;;;;;;1999.90;999.90;;;19.80;94.30;;;;;;6125019;23;20155;-47
2021/06/18 10:59:36;;;;;;;1999.90;999.90;;;19.90;93.80;;;;;;6125959;23;20540;-47
2021/06/18 11:04:52;;;;;;;1999.90;999.90;;;20.10;93.80;;;;;;6125318;23;20159;-58
2021/06/18 11:07:28;;;;;;;1999.90;999.90;;;20.30;92.00;;;;;;6125597;23;20481;-56
2021/06/18 11:10:00;;;;;;;1999.90;999.90;;;20.50;90.70;;;;;;6125751;23;20434;-60
2021/06/18 11:12:29;;;;;;;1999.90;999.90;;;20.40;86.50;;;;;;6099586;23;20236;-51
2021/06/18 11:15:02;;;;;;;1999.90;999.90;;;20.50;83.00;;;;;;6124758;23;20143;-51
2021/06/18 11:17:49;;;;;;;1999.90;999.90;;;20.60;82.20;;;;;;6124116;23;20139;-57
2021/06/18 11:20:43;;;;;;;1999.90;999.90;;;20.60;78.70;;;;;;6125160;23;20495;-59
2021/06/18 11:23:14;;;;;;;1999.90;999.90;;;20.70;80.30;;;;;;6095348;23;20538;-51
2021/06/18 11:25:42;;;;;;;1999.90;999.90;;;20.60;78.40;;;;;;6125157;23;20193;-49
2021/06/18 11:28:24;;;;;;;1999.90;999.90;;;20.50;77.70;;;;;;6125500;23;20155;-47
2021/06/18 11:30:59;;;;;;;1999.90;999.90;;;20.50;77.20;;;;;;6125305;23;20148;-54
2021/06/18 11:33:41;;;;;;;1999.90;999.90;;;20.60;79.70;;;;;;6124840;23;20163;-53
2021/06/18 11:36:09;;;;;;;1999.90;999.90;;;20.70;78.30;;;;;;6124973;23;20166;-55
2021/06/18 11:38:36;;;;;;;1999.90;999.90;;;20.80;72.80;;;;;;6125512;23;20147;-45
2021/06/18 11:41:09;;;;;;;1999.90;999.90;;;20.90;74.40;;;;;;6125549;23;20155;-47
2021/06/18 11:43:37;;;;;;;1999.90;999.90;;;20.90;74.30;;;;;;6125167;23;20190;-53
2021/06/18 11:46:05;;;;;;;1999.90;999.90;;;21.00;75.80;;;;;;6125404;23;20214;-43
2021/06/18 11:48:32;;;;;;;1999.90;999.90;;;21.10;70.80;;;;;;6125450;23;20174;-51
2021/06/18 11:51:00;;;;;;;1999.90;999.90;;;21.20;74.20;;;;;;6099321;23;20202;-50
2021/06/18 11:53:42;;;;;;;1999.90;999.90;;;21.20;67.00;;;;;;6125105;23;20195;-46
2021/06/18 11:56:09;;;;;;;1999.90;999.90;;;21.20;68.10;;;;;;6125465;23;20226;-51
2021/06/18 11:58:37;;;;;;;1999.90;999.90;;;21.30;67.90;;;;;;6125530;23;20268;-46
2021/06/18 12:01:28;;;;;;;1999.90;999.90;;;21.20;64.20;;;;;;6125467;23;20143;-53
2021/06/18 12:04:00;;;;;;;1999.90;999.90;;;21.00;62.00;;;;;;6125211;23;20147;-49
2021/06/18 12:06:27;;;;;;;1999.90;999.90;;;21.10;67.90;;;;;;6125277;23;20302;-46
2021/06/18 12:09:05;;;;;;;1999.90;999.90;;;21.40;69.40;;;;;;6127286;23;20231;-47
2021/06/18 12:11:38;;;;;;;1999.90;999.90;;;21.50;65.00;;;;;;6127332;23;20170;-46
2021/06/18 12:14:05;;;;;;;1999.90;999.90;;;21.50;65.90;;;;;;6127368;23;20333;-53
2021/06/18 12:16:36;;;;;;;1999.90;999.90;;;21.50;65.10;;;;;;6127141;23;20159;-47
2021/06/18 12:19:24;;;;;;;1999.90;999.90;;;21.60;63.90;;;;;;6126998;23;20178;-55